createdAt,value
2022-11-07T00:00:59.975Z,100333.60
2022-11-07T00:06:03.322Z,100334.60
2022-11-07T00:11:07.581Z,100328.60
2022-11-07T00:16:11.883Z,100329.60
2022-11-07T00:21:15.403Z,100331.00
2022-11-07T00:26:18.816Z,100335.20
2022-11-07T00:31:22.231Z,100341.80
2022-11-07T00:36:29.230Z,100343.40
2022-11-07T00:41:33.468Z,100343.80
2022-11-07T00:46:36.978Z,100333.00
2022-11-07T00:51:40.492Z,100332.80
2022-11-07T00:56:44.126Z,100333.40
2022-11-07T01:01:47.527Z,100322.80
2022-11-07T01:06:51.246Z,100330.80
2022-11-07T01:11:54.802Z,100323.40
2022-11-07T01:16:58.174Z,100315.80
2022-11-07T01:22:01.588Z,100303.00
2022-11-07T01:27:05.109Z,100300.60
2022-11-07T01:32:08.519Z,100288.40
2022-11-07T01:37:12.037Z,100287.60
2022-11-07T01:42:15.468Z,100271.40
2022-11-07T01:47:20.098Z,100253.40
2022-11-07T01:52:34.587Z,100256.40
2022-11-07T01:58:05.860Z,100249.80
2022-11-07T02:03:15.614Z,100242.80
2022-11-07T02:08:21.776Z,100226.60
2022-11-07T02:13:29.081Z,100223.20
2022-11-07T02:18:37.109Z,100205.20
2022-11-07T02:23:51.166Z,100199.60
2022-11-07T02:28:57.752Z,100189.80
2022-11-07T02:34:01.269Z,100165.40
2022-11-07T02:39:05.279Z,100156.20
2022-11-07T02:44:12.921Z,100137.80
2022-11-07T02:49:16.234Z,100128.80
2022-11-07T02:54:19.737Z,100132.20
2022-11-07T02:59:27.019Z,100136.40
2022-11-07T03:04:30.766Z,100129.40
2022-11-07T03:09:34.211Z,100120.20
2022-11-07T03:14:37.951Z,100118.80
2022-11-07T03:19:42.035Z,100116.80
2022-11-07T03:24:45.449Z,100114.80
2022-11-07T03:29:48.964Z,100107.20
2022-11-07T03:34:52.374Z,100103.60
2022-11-07T03:39:55.788Z,100110.20
2022-11-07T03:44:59.203Z,100107.80
2022-11-07T03:50:04.891Z,100097.40
2022-11-07T03:55:09.562Z,100088.80
2022-11-07T04:00:15.582Z,100103.60
2022-11-07T04:05:19.216Z,100099.40
2022-11-07T04:10:22.553Z,100099.20
2022-11-07T04:15:44.983Z,100102.40
2022-11-07T04:20:48.497Z,100096.80
2022-11-07T04:26:10.557Z,100109.00
2022-11-07T04:31:13.915Z,100111.20
2022-11-07T04:36:18.193Z,100106.20
2022-11-07T04:41:24.697Z,100115.80
2022-11-07T04:46:28.091Z,100105.80
2022-11-07T04:51:31.812Z,100083.60
2022-11-07T04:56:35.225Z,100090.40
2022-11-07T05:01:38.797Z,100083.00
2022-11-07T05:06:42.736Z,100079.80
2022-11-07T05:11:47.837Z,100082.00
2022-11-07T05:16:54.825Z,100081.20
2022-11-07T05:22:17.051Z,100067.00
2022-11-07T05:27:22.455Z,100057.00
2022-11-07T05:32:25.852Z,100060.20
2022-11-07T05:37:29.369Z,100045.40
2022-11-07T05:42:32.784Z,100041.00
2022-11-07T05:47:36.193Z,100047.80
2022-11-07T05:52:39.626Z,100052.20
2022-11-07T05:57:43.302Z,100053.60
2022-11-07T06:03:00.763Z,100066.80
2022-11-07T06:08:04.396Z,100076.80
2022-11-07T06:13:13.482Z,100081.20
2022-11-07T06:18:21.481Z,100079.00
2022-11-07T06:23:25.284Z,100076.60
2022-11-07T06:28:29.001Z,100071.60
2022-11-07T06:33:33.265Z,100062.20
2022-11-07T06:38:38.602Z,100061.60
2022-11-07T06:43:42.425Z,100043.20
2022-11-07T06:48:46.644Z,100026.20
2022-11-07T06:53:50.832Z,100033.80
2022-11-07T06:58:54.819Z,100031.20
2022-11-07T07:04:00.988Z,100039.00
2022-11-07T07:09:07.165Z,100054.20
2022-11-07T07:14:11.880Z,100052.20
2022-11-07T07:19:15.816Z,100050.80
2022-11-07T07:24:19.360Z,100061.40
2022-11-07T07:29:23.076Z,100067.20
2022-11-07T07:34:29.362Z,100060.00
2022-11-07T07:39:36.285Z,100070.80
2022-11-07T07:44:41.629Z,100069.60
2022-11-07T07:49:46.462Z,100074.80
2022-11-07T07:54:49.976Z,100060.00
2022-11-07T07:59:53.730Z,100059.40
2022-11-07T08:04:57.074Z,100062.40
2022-11-07T08:10:09.803Z,100052.00
2022-11-07T08:15:24.126Z,100054.00
2022-11-07T08:20:28.345Z,100047.00
2022-11-07T08:25:32.756Z,100054.00
2022-11-07T08:30:36.502Z,100046.40
2022-11-07T08:35:42.663Z,100052.40
2022-11-07T08:40:46.609Z,100056.20
2022-11-07T08:45:51.305Z,100043.40
2022-11-07T08:50:58.563Z,100049.60
2022-11-07T08:56:10.783Z,100048.80
2022-11-07T09:01:14.267Z,100043.20
2022-11-07T09:06:18.733Z,100041.80
2022-11-07T09:11:22.584Z,100040.80
2022-11-07T09:16:25.970Z,100031.80
2022-11-07T09:21:29.484Z,100032.60
2022-11-07T09:26:33.002Z,100015.00
2022-11-07T09:31:36.549Z,100012.60
2022-11-07T09:36:40.166Z,100015.00
2022-11-07T09:41:52.660Z,100022.20
2022-11-07T09:47:01.745Z,100020.40
2022-11-07T09:52:22.737Z,100048.20
2022-11-07T09:57:29.733Z,100057.80
2022-11-07T10:02:42.971Z,100068.00
2022-11-07T10:08:11.992Z,100069.60
2022-11-07T10:13:40.084Z,100063.00
2022-11-07T10:19:05.829Z,100059.40
2022-11-07T10:24:31.046Z,100052.80
2022-11-07T10:29:49.003Z,100050.40
2022-11-07T10:35:13.405Z,100039.80
2022-11-07T10:40:21.837Z,100039.80
2022-11-07T10:45:27.403Z,100034.00
2022-11-07T10:50:31.748Z,100036.20
2022-11-07T10:55:46.111Z,100027.00
2022-11-07T11:01:10.546Z,100025.00
2022-11-07T11:06:28.779Z,100023.40
2022-11-07T11:11:34.990Z,100015.20
2022-11-07T11:16:44.053Z,100021.20
2022-11-07T11:21:51.104Z,100024.20
2022-11-07T11:26:59.334Z,100011.20
2022-11-07T11:32:05.624Z,99987.20
2022-11-07T11:37:22.449Z,99984.00
2022-11-07T11:42:31.089Z,99990.60
2022-11-07T11:48:04.913Z,99991.80
2022-11-07T11:53:17.562Z,100016.60
2022-11-07T11:58:50.540Z,99998.60
2022-11-07T12:04:03.747Z,99995.20
2022-11-07T12:09:56.557Z,99998.40
2022-11-07T12:15:28.667Z,100007.40
2022-11-07T12:20:57.760Z,99988.60
2022-11-07T12:26:17.297Z,99993.20
2022-11-07T12:31:41.653Z,99983.60
2022-11-07T12:37:33.717Z,99986.60
2022-11-07T12:43:14.200Z,100001.00
2022-11-07T12:48:34.298Z,100003.40
2022-11-07T12:53:44.880Z,100000.80
2022-11-07T12:58:50.447Z,100017.00
2022-11-07T13:04:16.651Z,100010.40
2022-11-07T13:09:37.632Z,100019.60
2022-11-07T13:14:43.593Z,100023.20
2022-11-07T13:20:07.179Z,100021.80
2022-11-07T13:25:17.478Z,100038.00
2022-11-07T13:30:31.824Z,100040.20
2022-11-07T13:35:40.085Z,100052.80
2022-11-07T13:41:07.528Z,100039.60
2022-11-07T13:46:21.804Z,100044.80
2022-11-07T13:51:37.804Z,100051.20
2022-11-07T13:56:56.688Z,100055.60
2022-11-07T14:02:00.265Z,100059.20
2022-11-07T14:07:05.249Z,100060.20
2022-11-07T14:12:20.445Z,100058.20
2022-11-07T14:17:33.277Z,100065.20
2022-11-07T14:22:38.066Z,100067.80
2022-11-07T14:27:46.759Z,100067.80
2022-11-07T14:32:58.282Z,100061.80
2022-11-07T14:38:18.019Z,100061.80
2022-11-07T14:43:25.216Z,100056.40
2022-11-07T14:48:30.735Z,100055.40
2022-11-07T14:53:53.804Z,100063.00
2022-11-07T14:58:59.104Z,100053.60
2022-11-07T15:04:25.006Z,100049.40
2022-11-07T15:09:34.004Z,100051.00
2022-11-07T15:14:37.977Z,100059.00
2022-11-07T15:19:41.590Z,100065.20
2022-11-07T15:24:47.091Z,100060.60
2022-11-07T15:30:02.268Z,100052.80
2022-11-07T15:40:43.645Z,100070.00
2022-11-07T15:45:50.949Z,100083.20
2022-11-07T15:50:54.753Z,100080.20
2022-11-07T15:56:00.987Z,100085.00
2022-11-07T16:01:04.543Z,100090.80
2022-11-07T16:06:31.939Z,100081.00
2022-11-07T16:11:35.396Z,100080.20
2022-11-07T16:16:39.014Z,100088.00
2022-11-07T16:21:42.641Z,100096.00
2022-11-07T16:26:48.591Z,100091.40
2022-11-07T16:31:52.143Z,100102.20
2022-11-07T16:36:55.649Z,100093.20
2022-11-07T16:41:59.156Z,100086.60
2022-11-07T16:47:03.046Z,100096.20
2022-11-07T16:52:06.499Z,100093.60
2022-11-07T16:57:18.317Z,100101.40
2022-11-07T17:02:26.631Z,100110.60
2022-11-07T17:07:30.068Z,100105.00
2022-11-07T17:12:33.565Z,100114.40
2022-11-07T17:17:37.191Z,100116.00
2022-11-07T17:22:40.602Z,100123.80
2022-11-07T17:27:44.019Z,100130.40
2022-11-07T17:32:47.439Z,100135.00
